Gyoychay, Azerbaijan

12:51 PM AZST on October 25, 2014 (GMT +0500)
Gabala International Airport | Change Station
CLOSE
Current Station
Airport
Location: Gabala International Airport,
Elevation: 1109 ft
Nearby Weather Stations

Elev 1109 ft 40.81 °N, 47.73 °E | Updated 51 minutes ago

Overcast
Overcast
57 °F
Feels Like 57 °F
N
8
Wind Variable Wind from West

Today
High -- | Low -- °F
--% Chance of Precip.
Yesterday
High -- | Low -- °F
Precip. -- in
8:10 AM 6:54 PM
New Moon, 2% visible
Pressure 30.01 in
Visibility 6.2 miles
Clouds Overcast 3000 ft
Dew Point 50 °F
Humidity 77%
Rainfall 0.00 in
Snow Depth Not available.
UV 1 out of 12
Pollen Not available.
Air Quality Not available.
Flu Activity Not available.
METAR UBBQ 250700Z 27007KT 9999 OVC030 14/10 Q1016 R34/CLRD70 NOSIG RMK MT OBSC

More Conditions Fewer Conditions

Pressure 30.01 in
Visibility 6.2 miles
Clouds Overcast 3000 ft
Dew Point 50 °F
Humidity 77%
Rainfall 0.00 in
Snow Depth Not available.
UV 1 out of 12
Pollen Not available.
Air Quality Not available.
Flu Activity Not available.
METAR UBBQ 250700Z 27007KT 9999 OVC030 14/10 Q1016 R34/CLRD70 NOSIG RMK MT OBSC

More Conditions Fewer Conditions

10-Day Weather Forecast

Almanac

Astronomy

Oct. 25, 2014 Rise Set
Actual Time 8:10 AM AZST 6:54 PM AZST
Civil Twilight 7:42 AM AZST 7:22 PM AZST
Nautical Twilight 7:10 AM AZST 7:54 PM AZST
Astronomical Twilight 6:39 AM AZST 8:26 PM AZST
Moon 9:27 AM AZST 8:00 PM AZST
Length of Visible Light 11h 40m
Length of Day
10h 44m
Tomorrow will be 2m 29s shorter.
New Moon, 2% of the Moon is Illuminated
Today
New Moon
Oct 30
First Quarter
Nov 6
Full
Nov 14
Last Quarter
Nov 22
New

Yesterday's Extremes

Country Highs Country Lows

Community

WunderPhotos

Upload Photos

1,764,791 photos uploaded!

Nearby

Snow Depth

Not available.

Earthquake Activity

City Distance Mag. Time & Date
No recent earthquake activity has been reported nearby.
Minimum magnitude displayed is 2.5.

Coastal Water Temperatures

Place Temperature
No Stations Reporting

Nearby Weather Stations